Details From LOWI - Innsbruck Kranebitten
To EGPF - Glasgow
Flight Number -
Tags generated
Created
Modified
Stats Distance 795 nm / 1,472 km
Max Altitude 34,000 ft / 10,363 m
Waypoints 18
Social Downloads 1
Likes 0
Share VATSIM

Download

Looking for another format? Having issues loading an existing format? Contact us
Advertisement - Login to hide

Notes

Basic altitude profile: - Ascent Rate: 2500ft/min - Ascent Speed: 250kts - Cruise Altitude: 37000ft - Cruise Speed: 420kts - Descent Rate: 1500ft/min - Descent Speed: 250kts Options: - Use NATs: yes - Use PACOTS: yes - Use low airways: yes - Use high airways: yes

Route

LOWI ULMEX TB6 BANIM RIDSU UZ738 COL BIBOS UZ28 NAPSI UY282 RENDI UZ28 SPY UL602 SUPUR UP1 GODOS UM981 NEW EGPF

ID Type Via Altitude (ft/m) Position (lat/lon) Dist (leg/tot) Name
O LOWI APT - 0 / 0 47.26023 / 11.34397 - / 0 nm Innsbruck Kranebitten
ULMEX FIX - 34,000 / 10,363 48.82417 / 10.03633 107 / 107 nm
BANIM FIX TB6 (AWY-HI) 34,000 / 10,363 49.71833 / 8.60883 77 / 185 nm
RIDSU FIX - 34,000 / 10,363 49.74889 / 8.48000 5 / 190 nm
MONAX FIX UZ738 (AWY-HI) 34,000 / 10,363 50.52139 / 7.82306 52 / 243 nm
COL VOR UZ738 (AWY-HI) 34,000 / 10,363 50.78352 / 7.59419 17 / 261 nm COLA VORTAC
BIBOS FIX - 34,000 / 10,363 50.94889 / 7.20861 17 / 278 nm
DISMO FIX UZ28 (AWY-HI) 34,000 / 10,363 51.40944 / 6.75167 32 / 311 nm
NAPSI FIX UZ28 (AWY-HI) 34,000 / 10,363 51.85528 / 6.02139 38 / 349 nm
RENDI FIX UY282 (AWY-HI) 34,000 / 10,363 52.06167 / 5.67750 17 / 367 nm
SPY VOR UZ28 (AWY-HI) 34,000 / 10,363 52.54028 / 4.85378 41 / 409 nm SPIJKERBOOR VOR-DME
BERGI FIX UL602 (AWY-HI) 34,000 / 10,363 52.74875 / 4.35893 21 / 431 nm
AMGOD FIX UL602 (AWY-HI) 34,000 / 10,363 52.97522 / 3.68539 27 / 459 nm
SUPUR FIX UL602 (AWY-HI) 34,000 / 10,363 53.01522 / 3.56446 4 / 464 nm
GODOS FIX UP1 (AWY-HI) 34,000 / 10,363 53.24904 / 3.42966 14 / 478 nm
ROXAT FIX UM981 (AWY-HI) 34,000 / 10,363 53.41361 / 3.00000 18 / 497 nm
NEW VOR UM981 (AWY-HI) 24,500 / 7,468 55.03845 / -1.69837 191 / 688 nm NEWCASTLE VOR-DME
O EGPF APT - 0 / 0 55.87173 / -4.43365 105 / 794 nm Glasgow

Altitude Profile

Advertisement - Login to hide

Weather


0- 5 10 15 20 25 30 35+ Temperature / °C

Clouds and Precipitation
Forecast for 2019-01-17 12:00 UTC. Updated an hour ago

Ground ~20,000 ft ~40,000 ft Winds

LOWI

Details ICAO LOWI (INN)
Name Innsbruck Kranebitten
Region Austria
Timezone Europe/Vienna (UTC+1.0)
Stats Elevation 1,905 ft / 581 m (AMSL)
Location 47.260200° 11.344000°
Runways 1
Magnetic Variation 3.150° E

METAR

LOWI 170950Z 27013KT 9999 FEW060 00/M03 Q1010 NOSIG

Decode

TAF

TAF LOWI 170515Z 1706/1806 27010KT CAVOK TX04/1714Z TNM03/1706Z BECMG 1715/1717 VRB02KT 9999 SCT080 BKN100 TEMPO 1720/1806 29012KT -SHSN SCT040 BKN070

Decode

Departure Runways

ID Width Length Bearing (true/mag) Surface Threshold Overrun Markings Lighting
08 148 ft / 45 m 6,544 ft / 1,995 m 80.93° / 77.78° ASPHALT 338 ft / 103 m 0 ft / 0 m PREC-APP CENTERLINE REIL-OMNI
26 148 ft / 45 m 6,544 ft / 1,995 m 260.95° / 257.80° ASPHALT 0 ft / 0 m 0 ft / 0 m PREC-APP CENTERLINE MALS REIL-OMNI

EGPF

Details ICAO EGPF (GLA)
Name Glasgow
Region United Kingdom
Timezone Europe/London (UTC+0.0)
Stats Elevation 26 ft / 8 m (AMSL)
Location 55.871700° -4.433700°
Runways 1
Magnetic Variation 2.544° W

METAR

EGPF 171020Z AUTO VRB02KT 9999 NCD 02/M02 Q1014

Decode

TAF

TAF AMD EGPF 170802Z 1708/1806 25009KT 9999 FEW025= TAF EGXW 170800Z 1709/1803 33012KT 9999 SCT030 PROB40 TEMPO 1710/1715 32015G25KT

Decode

Destination Runways

ID Width Length Bearing (true/mag) Surface Threshold Overrun Markings Lighting
05 148 ft / 45 m 8,699 ft / 2,651 m 46.34° / 48.88° ASPHALT 0 ft / 0 m 489 ft / 149 m APP CENTERLINE EDGE THRESHOLD MALSF
23 148 ft / 45 m 8,699 ft / 2,651 m 226.36° / 228.90° ASPHALT 974 ft / 297 m 0 ft / 0 m APP CENTERLINE EDGE THRESHOLD MALSF

Approach Navaids

Runway Type Ident Frequency Range Bearing (true/mag) Slope Elevation
05 LOC-ILS IUU 110.10 MHz 18 nm / 33 km 46.35° / 48.89 ° - 26 ft / 8 m (AMSL)
05 GS IUU 110.10 MHz 18 nm / 33 km 46.35° / 48.89 ° 3.00° 26 ft / 8 m (AMSL)
05 DME IUU 110.10 MHz 18 nm / 33 km - - 25 ft / 8 m (AMSL)
23 DME IOO 110.10 MHz 18 nm / 33 km - - 25 ft / 8 m (AMSL)
23 GS IOO 110.10 MHz 18 nm / 33 km 226.35° / 228.89 ° 3.00° 26 ft / 8 m (AMSL)
23 LOC-ILS IOO 110.10 MHz 18 nm / 33 km 226.35° / 228.89 ° - 26 ft / 8 m (AMSL)

Popular Alternatives